<?xml version="1.0" encoding="UTF-8"?>
<gpx xmlns="http://www.topografix.com/GPX/1/1" xmlns:xsi="http://www.w3.org/2001/XMLSchema-instance" version="1.1" xsi:schemaLocation="http://www.topografix.com/GPX/1/1 http://www.topografix.com/GPX/1/1/gpx.xsd">
  <metadata>
    <name>Sun City Triathlon Festival</name>
  </metadata>
  <trk>
    <name>Sun City Triathlon Festival</name>
    <trkseg>
      <trkpt lat="17.908664" lon="-76.887942">
        <ele>6.255326</ele>
        <time>2024-03-16T06:45:00.000Z</time>
      </trkpt>
      <trkpt lat="17.908887" lon="-76.887946">
        <ele>6.25532</ele>
        <time>2024-03-16T06:45:02.000Z</time>
      </trkpt>
      <trkpt lat="17.909205" lon="-76.887961">
        <ele>6.255326</ele>
        <time>2024-03-16T06:45:06.000Z</time>
      </trkpt>
      <trkpt lat="17.909444" lon="-76.889179">
        <ele>6.314853</ele>
        <time>2024-03-16T06:45:19.000Z</time>
      </trkpt>
      <trkpt lat="17.909502" lon="-76.889721">
        <ele>6.351615</ele>
        <time>2024-03-16T06:45:25.000Z</time>
      </trkpt>
      <trkpt lat="17.909396" lon="-76.892893">
        <ele>7.803726</ele>
        <time>2024-03-16T06:45:59.000Z</time>
      </trkpt>
      <trkpt lat="17.909365" lon="-76.893606">
        <ele>8.188246</ele>
        <time>2024-03-16T06:46:07.000Z</time>
      </trkpt>
      <trkpt lat="17.909304" lon="-76.893954">
        <ele>8.370913</ele>
        <time>2024-03-16T06:46:11.000Z</time>
      </trkpt>
      <trkpt lat="17.909202" lon="-76.894197">
        <ele>8.584838</ele>
        <time>2024-03-16T06:46:14.000Z</time>
      </trkpt>
      <trkpt lat="17.908897" lon="-76.894516">
        <ele>8.948213</ele>
        <time>2024-03-16T06:46:19.000Z</time>
      </trkpt>
      <trkpt lat="17.908815" lon="-76.894502">
        <ele>9.024684</ele>
        <time>2024-03-16T06:46:20.000Z</time>
      </trkpt>
      <trkpt lat="17.908458" lon="-76.894251">
        <ele>9.378035</ele>
        <time>2024-03-16T06:46:25.000Z</time>
      </trkpt>
      <trkpt lat="17.907884" lon="-76.893605">
        <ele>9.794105</ele>
        <time>2024-03-16T06:46:34.000Z</time>
      </trkpt>
      <trkpt lat="17.907134" lon="-76.892807">
        <ele>9.38192</ele>
        <time>2024-03-16T06:46:46.000Z</time>
      </trkpt>
      <trkpt lat="17.907007" lon="-76.892711">
        <ele>9.319806</ele>
        <time>2024-03-16T06:46:48.000Z</time>
      </trkpt>
      <trkpt lat="17.906422" lon="-76.89229">
        <ele>8.650955</ele>
        <time>2024-03-16T06:46:56.000Z</time>
      </trkpt>
      <trkpt lat="17.905986" lon="-76.892132">
        <ele>7.972872</ele>
        <time>2024-03-16T06:47:01.000Z</time>
      </trkpt>
      <trkpt lat="17.905532" lon="-76.892017">
        <ele>7.285313</ele>
        <time>2024-03-16T06:47:06.000Z</time>
      </trkpt>
      <trkpt lat="17.904868" lon="-76.892036">
        <ele>6.488696</ele>
        <time>2024-03-16T06:47:13.000Z</time>
      </trkpt>
      <trkpt lat="17.904391" lon="-76.892132">
        <ele>6.282675</ele>
        <time>2024-03-16T06:47:18.000Z</time>
      </trkpt>
      <trkpt lat="17.903952" lon="-76.892395">
        <ele>6.070839</ele>
        <time>2024-03-16T06:47:24.000Z</time>
      </trkpt>
      <trkpt lat="17.903343" lon="-76.892811">
        <ele>5.824739</ele>
        <time>2024-03-16T06:47:32.000Z</time>
      </trkpt>
      <trkpt lat="17.901211" lon="-76.894386">
        <ele>6.718977</ele>
        <time>2024-03-16T06:48:01.000Z</time>
      </trkpt>
      <trkpt lat="17.899894" lon="-76.895456">
        <ele>7.713955</ele>
        <time>2024-03-16T06:48:20.000Z</time>
      </trkpt>
      <trkpt lat="17.899478" lon="-76.895596">
        <ele>8.051549</ele>
        <time>2024-03-16T06:48:25.000Z</time>
      </trkpt>
      <trkpt lat="17.899384" lon="-76.895605">
        <ele>8.115072</ele>
        <time>2024-03-16T06:48:26.000Z</time>
      </trkpt>
      <trkpt lat="17.899256" lon="-76.895655">
        <ele>8.226779</ele>
        <time>2024-03-16T06:48:28.000Z</time>
      </trkpt>
      <trkpt lat="17.899158" lon="-76.895783">
        <ele>8.338621</ele>
        <time>2024-03-16T06:48:30.000Z</time>
      </trkpt>
      <trkpt lat="17.899149" lon="-76.895831">
        <ele>8.384631</ele>
        <time>2024-03-16T06:48:31.000Z</time>
      </trkpt>
      <trkpt lat="17.899069" lon="-76.895956">
        <ele>8.48788</ele>
        <time>2024-03-16T06:48:33.000Z</time>
      </trkpt>
      <trkpt lat="17.898784" lon="-76.896292">
        <ele>8.989239</ele>
        <time>2024-03-16T06:48:38.000Z</time>
      </trkpt>
      <trkpt lat="17.895023" lon="-76.899168">
        <ele>15.644506</ele>
        <time>2024-03-16T06:49:30.000Z</time>
      </trkpt>
      <trkpt lat="17.894094" lon="-76.899994">
        <ele>20.24246</ele>
        <time>2024-03-16T06:49:44.000Z</time>
      </trkpt>
      <trkpt lat="17.8937" lon="-76.900527">
        <ele>23.0756</ele>
        <time>2024-03-16T06:49:51.000Z</time>
      </trkpt>
      <trkpt lat="17.893399" lon="-76.901025">
        <ele>25.091813</ele>
        <time>2024-03-16T06:49:57.000Z</time>
      </trkpt>
      <trkpt lat="17.893148" lon="-76.900821">
        <ele>25.939089</ele>
        <time>2024-03-16T06:50:01.000Z</time>
      </trkpt>
      <trkpt lat="17.892907" lon="-76.900526">
        <ele>26.90731</ele>
        <time>2024-03-16T06:50:05.000Z</time>
      </trkpt>
      <trkpt lat="17.892347" lon="-76.899585">
        <ele>28.739236</ele>
        <time>2024-03-16T06:50:17.000Z</time>
      </trkpt>
      <trkpt lat="17.892081" lon="-76.899326">
        <ele>28.158288</ele>
        <time>2024-03-16T06:50:21.000Z</time>
      </trkpt>
      <trkpt lat="17.891861" lon="-76.899194">
        <ele>27.779412</ele>
        <time>2024-03-16T06:50:24.000Z</time>
      </trkpt>
      <trkpt lat="17.891616" lon="-76.899103">
        <ele>27.369442</ele>
        <time>2024-03-16T06:50:27.000Z</time>
      </trkpt>
      <trkpt lat="17.891433" lon="-76.899038">
        <ele>27.087875</ele>
        <time>2024-03-16T06:50:29.000Z</time>
      </trkpt>
      <trkpt lat="17.891124" lon="-76.899036">
        <ele>26.597997</ele>
        <time>2024-03-16T06:50:32.000Z</time>
      </trkpt>
      <trkpt lat="17.890685" lon="-76.89908">
        <ele>25.484144</ele>
        <time>2024-03-16T06:50:37.000Z</time>
      </trkpt>
      <trkpt lat="17.890232" lon="-76.899323">
        <ele>23.788288</ele>
        <time>2024-03-16T06:50:43.000Z</time>
      </trkpt>
      <trkpt lat="17.889748" lon="-76.899638">
        <ele>21.820432</ele>
        <time>2024-03-16T06:50:49.000Z</time>
      </trkpt>
      <trkpt lat="17.889485" lon="-76.899797">
        <ele>20.841513</ele>
        <time>2024-03-16T06:50:52.000Z</time>
      </trkpt>
      <trkpt lat="17.888913" lon="-76.90024">
        <ele>18.6224</ele>
        <time>2024-03-16T06:51:00.000Z</time>
      </trkpt>
      <trkpt lat="17.888456" lon="-76.900793">
        <ele>16.53777</ele>
        <time>2024-03-16T06:51:08.000Z</time>
      </trkpt>
      <trkpt lat="17.888012" lon="-76.901374">
        <ele>14.891011</ele>
        <time>2024-03-16T06:51:16.000Z</time>
      </trkpt>
      <trkpt lat="17.886731" lon="-76.902678">
        <ele>15.455404</ele>
        <time>2024-03-16T06:51:36.000Z</time>
      </trkpt>
      <trkpt lat="17.885828" lon="-76.903537">
        <ele>18.295349</ele>
        <time>2024-03-16T06:51:50.000Z</time>
      </trkpt>
      <trkpt lat="17.885462" lon="-76.903704">
        <ele>19.224272</ele>
        <time>2024-03-16T06:51:54.000Z</time>
      </trkpt>
      <trkpt lat="17.885323" lon="-76.903759">
        <ele>19.347932</ele>
        <time>2024-03-16T06:51:56.000Z</time>
      </trkpt>
      <trkpt lat="17.885228" lon="-76.903761">
        <ele>19.362312</ele>
        <time>2024-03-16T06:51:57.000Z</time>
      </trkpt>
      <trkpt lat="17.8851" lon="-76.903772">
        <ele>19.384324</ele>
        <time>2024-03-16T06:51:58.000Z</time>
      </trkpt>
      <trkpt lat="17.884568" lon="-76.903741">
        <ele>19.471172</ele>
        <time>2024-03-16T06:52:04.000Z</time>
      </trkpt>
      <trkpt lat="17.884037" lon="-76.903752">
        <ele>19.559129</ele>
        <time>2024-03-16T06:52:10.000Z</time>
      </trkpt>
      <trkpt lat="17.88363" lon="-76.903829">
        <ele>19.60725</ele>
        <time>2024-03-16T06:52:15.000Z</time>
      </trkpt>
      <trkpt lat="17.883232" lon="-76.903974">
        <ele>18.879484</ele>
        <time>2024-03-16T06:52:20.000Z</time>
      </trkpt>
      <trkpt lat="17.882965" lon="-76.904096">
        <ele>18.375934</ele>
        <time>2024-03-16T06:52:23.000Z</time>
      </trkpt>
      <trkpt lat="17.882467" lon="-76.904457">
        <ele>17.339762</ele>
        <time>2024-03-16T06:52:30.000Z</time>
      </trkpt>
      <trkpt lat="17.881952" lon="-76.905017">
        <ele>16.251514</ele>
        <time>2024-03-16T06:52:38.000Z</time>
      </trkpt>
      <trkpt lat="17.881787" lon="-76.905299">
        <ele>15.940355</ele>
        <time>2024-03-16T06:52:42.000Z</time>
      </trkpt>
      <trkpt lat="17.881638" lon="-76.905565">
        <ele>15.654208</ele>
        <time>2024-03-16T06:52:45.000Z</time>
      </trkpt>
      <trkpt lat="17.881385" lon="-76.90625">
        <ele>14.973349</ele>
        <time>2024-03-16T06:52:53.000Z</time>
      </trkpt>
      <trkpt lat="17.881186" lon="-76.907009">
        <ele>15.753284</ele>
        <time>2024-03-16T06:53:01.000Z</time>
      </trkpt>
      <trkpt lat="17.88119" lon="-76.907511">
        <ele>16.653826</ele>
        <time>2024-03-16T06:53:06.000Z</time>
      </trkpt>
      <trkpt lat="17.881192" lon="-76.907588">
        <ele>16.799095</ele>
        <time>2024-03-16T06:53:07.000Z</time>
      </trkpt>
      <trkpt lat="17.881186" lon="-76.908134">
        <ele>17.779515</ele>
        <time>2024-03-16T06:53:13.000Z</time>
      </trkpt>
      <trkpt lat="17.883844" lon="-76.90794">
        <ele>25.739101</ele>
        <time>2024-03-16T06:53:43.000Z</time>
      </trkpt>
      <trkpt lat="17.887214" lon="-76.907817">
        <ele>30.101437</ele>
        <time>2024-03-16T06:54:20.000Z</time>
      </trkpt>
      <trkpt lat="17.88762" lon="-76.907819">
        <ele>30.643566</ele>
        <time>2024-03-16T06:54:25.000Z</time>
      </trkpt>
      <trkpt lat="17.888365" lon="-76.907588">
        <ele>31.690364</ele>
        <time>2024-03-16T06:54:34.000Z</time>
      </trkpt>
      <trkpt lat="17.888739" lon="-76.907418">
        <ele>32.450036</ele>
        <time>2024-03-16T06:54:39.000Z</time>
      </trkpt>
      <trkpt lat="17.890993" lon="-76.904999">
        <ele>39.142604</ele>
        <time>2024-03-16T06:55:15.000Z</time>
      </trkpt>
      <trkpt lat="17.891364" lon="-76.90461">
        <ele>38.992169</ele>
        <time>2024-03-16T06:55:21.000Z</time>
      </trkpt>
      <trkpt lat="17.892437" lon="-76.903227">
        <ele>36.285428</ele>
        <time>2024-03-16T06:55:40.000Z</time>
      </trkpt>
      <trkpt lat="17.892443" lon="-76.903214">
        <ele>36.232335</ele>
        <time>2024-03-16T06:55:40.000Z</time>
      </trkpt>
      <trkpt lat="17.892675" lon="-76.902718">
        <ele>34.318234</ele>
        <time>2024-03-16T06:55:46.000Z</time>
      </trkpt>
      <trkpt lat="17.893237" lon="-76.901527">
        <ele>29.254154</ele>
        <time>2024-03-16T06:56:00.000Z</time>
      </trkpt>
      <trkpt lat="17.893395" lon="-76.901021">
        <ele>26.573876</ele>
        <time>2024-03-16T06:56:06.000Z</time>
      </trkpt>
      <trkpt lat="17.893714" lon="-76.900525">
        <ele>23.547092</ele>
        <time>2024-03-16T06:56:12.000Z</time>
      </trkpt>
      <trkpt lat="17.894094" lon="-76.900006">
        <ele>20.444981</ele>
        <time>2024-03-16T06:56:19.000Z</time>
      </trkpt>
      <trkpt lat="17.895023" lon="-76.899166">
        <ele>15.832075</ele>
        <time>2024-03-16T06:56:33.000Z</time>
      </trkpt>
      <trkpt lat="17.898779" lon="-76.896307">
        <ele>9.16343</ele>
        <time>2024-03-16T06:57:25.000Z</time>
      </trkpt>
      <trkpt lat="17.898997" lon="-76.89624">
        <ele>8.982608</ele>
        <time>2024-03-16T06:57:28.000Z</time>
      </trkpt>
      <trkpt lat="17.899314" lon="-76.896208">
        <ele>8.717413</ele>
        <time>2024-03-16T06:57:32.000Z</time>
      </trkpt>
      <trkpt lat="17.899391" lon="-76.896215">
        <ele>8.650353</ele>
        <time>2024-03-16T06:57:33.000Z</time>
      </trkpt>
      <trkpt lat="17.89957" lon="-76.896277">
        <ele>8.49374</ele>
        <time>2024-03-16T06:57:35.000Z</time>
      </trkpt>
      <trkpt lat="17.899798" lon="-76.896455">
        <ele>8.259488</ele>
        <time>2024-03-16T06:57:38.000Z</time>
      </trkpt>
      <trkpt lat="17.90023" lon="-76.897007">
        <ele>8.076517</ele>
        <time>2024-03-16T06:57:46.000Z</time>
      </trkpt>
      <trkpt lat="17.900527" lon="-76.897523">
        <ele>7.953436</ele>
        <time>2024-03-16T06:57:52.000Z</time>
      </trkpt>
      <trkpt lat="17.900636" lon="-76.89793">
        <ele>7.864288</ele>
        <time>2024-03-16T06:57:56.000Z</time>
      </trkpt>
      <trkpt lat="17.900721" lon="-76.898677">
        <ele>8.029207</ele>
        <time>2024-03-16T06:58:04.000Z</time>
      </trkpt>
      <trkpt lat="17.900759" lon="-76.899713">
        <ele>8.419458</ele>
        <time>2024-03-16T06:58:15.000Z</time>
      </trkpt>
      <trkpt lat="17.900754" lon="-76.899846">
        <ele>8.470094</ele>
        <time>2024-03-16T06:58:16.000Z</time>
      </trkpt>
      <trkpt lat="17.900773" lon="-76.900364">
        <ele>8.92187</ele>
        <time>2024-03-16T06:58:21.000Z</time>
      </trkpt>
      <trkpt lat="17.900959" lon="-76.901596">
        <ele>10.368032</ele>
        <time>2024-03-16T06:58:34.000Z</time>
      </trkpt>
      <trkpt lat="17.900931" lon="-76.90203">
        <ele>10.865212</ele>
        <time>2024-03-16T06:58:39.000Z</time>
      </trkpt>
      <trkpt lat="17.900798" lon="-76.902453">
        <ele>11.353818</ele>
        <time>2024-03-16T06:58:44.000Z</time>
      </trkpt>
      <trkpt lat="17.900557" lon="-76.902832">
        <ele>11.872743</ele>
        <time>2024-03-16T06:58:49.000Z</time>
      </trkpt>
      <trkpt lat="17.90027" lon="-76.903151">
        <ele>12.351889</ele>
        <time>2024-03-16T06:58:54.000Z</time>
      </trkpt>
      <trkpt lat="17.900024" lon="-76.903555">
        <ele>12.986722</ele>
        <time>2024-03-16T06:58:59.000Z</time>
      </trkpt>
      <trkpt lat="17.900012" lon="-76.903662">
        <ele>13.324891</ele>
        <time>2024-03-16T06:59:00.000Z</time>
      </trkpt>
      <trkpt lat="17.899903" lon="-76.904152">
        <ele>14.868753</ele>
        <time>2024-03-16T06:59:05.000Z</time>
      </trkpt>
      <trkpt lat="17.8999" lon="-76.904316">
        <ele>15.361191</ele>
        <time>2024-03-16T06:59:07.000Z</time>
      </trkpt>
      <trkpt lat="17.899889" lon="-76.905113">
        <ele>17.730386</ele>
        <time>2024-03-16T06:59:15.000Z</time>
      </trkpt>
      <trkpt lat="17.899968" lon="-76.905534">
        <ele>19.470542</ele>
        <time>2024-03-16T06:59:20.000Z</time>
      </trkpt>
      <trkpt lat="17.900312" lon="-76.906682">
        <ele>25.862596</ele>
        <time>2024-03-16T06:59:33.000Z</time>
      </trkpt>
      <trkpt lat="17.900362" lon="-76.907409">
        <ele>29.535173</ele>
        <time>2024-03-16T06:59:41.000Z</time>
      </trkpt>
      <trkpt lat="17.900396" lon="-76.908374">
        <ele>33.599402</ele>
        <time>2024-03-16T06:59:51.000Z</time>
      </trkpt>
      <trkpt lat="17.900604" lon="-76.908896">
        <ele>35.893932</ele>
        <time>2024-03-16T06:59:57.000Z</time>
      </trkpt>
      <trkpt lat="17.900786" lon="-76.909112">
        <ele>36.822197</ele>
        <time>2024-03-16T07:00:00.000Z</time>
      </trkpt>
      <trkpt lat="17.901007" lon="-76.909055">
        <ele>37.325566</ele>
        <time>2024-03-16T07:00:03.000Z</time>
      </trkpt>
      <trkpt lat="17.901729" lon="-76.908722">
        <ele>39.190997</ele>
        <time>2024-03-16T07:00:12.000Z</time>
      </trkpt>
      <trkpt lat="17.902132" lon="-76.908634">
        <ele>40.208265</ele>
        <time>2024-03-16T07:00:17.000Z</time>
      </trkpt>
      <trkpt lat="17.90278" lon="-76.908404">
        <ele>40.863632</ele>
        <time>2024-03-16T07:00:25.000Z</time>
      </trkpt>
      <trkpt lat="17.903478" lon="-76.90794">
        <ele>41.039122</ele>
        <time>2024-03-16T07:00:34.000Z</time>
      </trkpt>
      <trkpt lat="17.903826" lon="-76.90756">
        <ele>41.143116</ele>
        <time>2024-03-16T07:00:40.000Z</time>
      </trkpt>
      <trkpt lat="17.904131" lon="-76.906994">
        <ele>40.758297</ele>
        <time>2024-03-16T07:00:47.000Z</time>
      </trkpt>
      <trkpt lat="17.904275" lon="-76.90664">
        <ele>40.523406</ele>
        <time>2024-03-16T07:00:51.000Z</time>
      </trkpt>
      <trkpt lat="17.904426" lon="-76.906035">
        <ele>40.123774</ele>
        <time>2024-03-16T07:00:58.000Z</time>
      </trkpt>
      <trkpt lat="17.904454" lon="-76.905434">
        <ele>39.592602</ele>
        <time>2024-03-16T07:01:04.000Z</time>
      </trkpt>
      <trkpt lat="17.904431" lon="-76.902967">
        <ele>37.022716</ele>
        <time>2024-03-16T07:01:30.000Z</time>
      </trkpt>
      <trkpt lat="17.904542" lon="-76.90189">
        <ele>36.086361</ele>
        <time>2024-03-16T07:01:41.000Z</time>
      </trkpt>
      <trkpt lat="17.904848" lon="-76.900222">
        <ele>35.169214</ele>
        <time>2024-03-16T07:01:59.000Z</time>
      </trkpt>
      <trkpt lat="17.904888" lon="-76.900088">
        <ele>34.915457</ele>
        <time>2024-03-16T07:02:00.000Z</time>
      </trkpt>
      <trkpt lat="17.904914" lon="-76.899943">
        <ele>34.394331</ele>
        <time>2024-03-16T07:02:02.000Z</time>
      </trkpt>
      <trkpt lat="17.905034" lon="-76.899395">
        <ele>32.398682</ele>
        <time>2024-03-16T07:02:08.000Z</time>
      </trkpt>
      <trkpt lat="17.905064" lon="-76.89915">
        <ele>31.52232</ele>
        <time>2024-03-16T07:02:11.000Z</time>
      </trkpt>
      <trkpt lat="17.905139" lon="-76.897863">
        <ele>26.177734</ele>
        <time>2024-03-16T07:02:25.000Z</time>
      </trkpt>
      <trkpt lat="17.905117" lon="-76.89757">
        <ele>24.561083</ele>
        <time>2024-03-16T07:02:28.000Z</time>
      </trkpt>
      <trkpt lat="17.905042" lon="-76.89669">
        <ele>19.644234</ele>
        <time>2024-03-16T07:02:37.000Z</time>
      </trkpt>
      <trkpt lat="17.905115" lon="-76.896023">
        <ele>16.990628</ele>
        <time>2024-03-16T07:02:44.000Z</time>
      </trkpt>
      <trkpt lat="17.905247" lon="-76.895621">
        <ele>15.935013</ele>
        <time>2024-03-16T07:02:49.000Z</time>
      </trkpt>
      <trkpt lat="17.9055" lon="-76.89521">
        <ele>14.698052</ele>
        <time>2024-03-16T07:02:54.000Z</time>
      </trkpt>
      <trkpt lat="17.905862" lon="-76.894846">
        <ele>13.373716</ele>
        <time>2024-03-16T07:03:00.000Z</time>
      </trkpt>
      <trkpt lat="17.906345" lon="-76.894568">
        <ele>12.923727</ele>
        <time>2024-03-16T07:03:06.000Z</time>
      </trkpt>
      <trkpt lat="17.906823" lon="-76.894462">
        <ele>12.657322</ele>
        <time>2024-03-16T07:03:11.000Z</time>
      </trkpt>
      <trkpt lat="17.90715" lon="-76.894458">
        <ele>12.480698</ele>
        <time>2024-03-16T07:03:15.000Z</time>
      </trkpt>
      <trkpt lat="17.907524" lon="-76.89454">
        <ele>12.278234</ele>
        <time>2024-03-16T07:03:19.000Z</time>
      </trkpt>
      <trkpt lat="17.908107" lon="-76.894869">
        <ele>11.641807</ele>
        <time>2024-03-16T07:03:26.000Z</time>
      </trkpt>
      <trkpt lat="17.908295" lon="-76.894951">
        <ele>11.413819</ele>
        <time>2024-03-16T07:03:28.000Z</time>
      </trkpt>
      <trkpt lat="17.908682" lon="-76.895007">
        <ele>11.000704</ele>
        <time>2024-03-16T07:03:32.000Z</time>
      </trkpt>
      <trkpt lat="17.908814" lon="-76.895039">
        <ele>10.860017</ele>
        <time>2024-03-16T07:03:34.000Z</time>
      </trkpt>
      <trkpt lat="17.908893" lon="-76.895032">
        <ele>10.773929</ele>
        <time>2024-03-16T07:03:35.000Z</time>
      </trkpt>
      <trkpt lat="17.908973" lon="-76.89498">
        <ele>10.678227</ele>
        <time>2024-03-16T07:03:36.000Z</time>
      </trkpt>
      <trkpt lat="17.909051" lon="-76.894857">
        <ele>10.515856</ele>
        <time>2024-03-16T07:03:38.000Z</time>
      </trkpt>
      <trkpt lat="17.909061" lon="-76.894793">
        <ele>10.454448</ele>
        <time>2024-03-16T07:03:39.000Z</time>
      </trkpt>
      <trkpt lat="17.909041" lon="-76.89467">
        <ele>10.332428</ele>
        <time>2024-03-16T07:03:40.000Z</time>
      </trkpt>
      <trkpt lat="17.908979" lon="-76.894572">
        <ele>10.29538</ele>
        <time>2024-03-16T07:03:41.000Z</time>
      </trkpt>
      <trkpt lat="17.908899" lon="-76.894515">
        <ele>10.28778</ele>
        <time>2024-03-16T07:03:42.000Z</time>
      </trkpt>
      <trkpt lat="17.908803" lon="-76.894492">
        <ele>10.280053</ele>
        <time>2024-03-16T07:03:43.000Z</time>
      </trkpt>
      <trkpt lat="17.908462" lon="-76.894252">
        <ele>10.244421</ele>
        <time>2024-03-16T07:03:48.000Z</time>
      </trkpt>
      <trkpt lat="17.907886" lon="-76.893607">
        <ele>10.173385</ele>
        <time>2024-03-16T07:03:57.000Z</time>
      </trkpt>
      <trkpt lat="17.907136" lon="-76.892815">
        <ele>9.393502</ele>
        <time>2024-03-16T07:04:09.000Z</time>
      </trkpt>
      <trkpt lat="17.907017" lon="-76.892715">
        <ele>9.242876</ele>
        <time>2024-03-16T07:04:11.000Z</time>
      </trkpt>
      <trkpt lat="17.906422" lon="-76.892277">
        <ele>8.576149</ele>
        <time>2024-03-16T07:04:19.000Z</time>
      </trkpt>
      <trkpt lat="17.905997" lon="-76.89213">
        <ele>8.019796</ele>
        <time>2024-03-16T07:04:24.000Z</time>
      </trkpt>
      <trkpt lat="17.905536" lon="-76.892011">
        <ele>7.411094</ele>
        <time>2024-03-16T07:04:29.000Z</time>
      </trkpt>
      <trkpt lat="17.904872" lon="-76.892037">
        <ele>6.555188</ele>
        <time>2024-03-16T07:04:36.000Z</time>
      </trkpt>
      <trkpt lat="17.904398" lon="-76.892138">
        <ele>6.107396</ele>
        <time>2024-03-16T07:04:41.000Z</time>
      </trkpt>
      <trkpt lat="17.903952" lon="-76.892396">
        <ele>6.034977</ele>
        <time>2024-03-16T07:04:47.000Z</time>
      </trkpt>
      <trkpt lat="17.90334" lon="-76.89281">
        <ele>5.930746</ele>
        <time>2024-03-16T07:04:55.000Z</time>
      </trkpt>
      <trkpt lat="17.901207" lon="-76.894393">
        <ele>6.703023</ele>
        <time>2024-03-16T07:05:24.000Z</time>
      </trkpt>
      <trkpt lat="17.899904" lon="-76.895456">
        <ele>7.689174</ele>
        <time>2024-03-16T07:05:42.000Z</time>
      </trkpt>
      <trkpt lat="17.899471" lon="-76.895591">
        <ele>8.065164</ele>
        <time>2024-03-16T07:05:47.000Z</time>
      </trkpt>
      <trkpt lat="17.899401" lon="-76.895592">
        <ele>8.135906</ele>
        <time>2024-03-16T07:05:48.000Z</time>
      </trkpt>
      <trkpt lat="17.899248" lon="-76.895667">
        <ele>8.260317</ele>
        <time>2024-03-16T07:05:50.000Z</time>
      </trkpt>
      <trkpt lat="17.899165" lon="-76.89577">
        <ele>8.384887</ele>
        <time>2024-03-16T07:05:51.000Z</time>
      </trkpt>
      <trkpt lat="17.899146" lon="-76.895846">
        <ele>8.436124</ele>
        <time>2024-03-16T07:05:52.000Z</time>
      </trkpt>
      <trkpt lat="17.899081" lon="-76.895954">
        <ele>8.551109</ele>
        <time>2024-03-16T07:05:53.000Z</time>
      </trkpt>
      <trkpt lat="17.898778" lon="-76.896292">
        <ele>8.914099</ele>
        <time>2024-03-16T07:05:58.000Z</time>
      </trkpt>
      <trkpt lat="17.895128" lon="-76.899096">
        <ele>15.590066</ele>
        <time>2024-03-16T07:06:48.000Z</time>
      </trkpt>
      <trkpt lat="17.895016" lon="-76.899169">
        <ele>15.932638</ele>
        <time>2024-03-16T07:06:49.000Z</time>
      </trkpt>
      <trkpt lat="17.894092" lon="-76.900002">
        <ele>19.982036</ele>
        <time>2024-03-16T07:07:03.000Z</time>
      </trkpt>
      <trkpt lat="17.893712" lon="-76.900532">
        <ele>22.867042</ele>
        <time>2024-03-16T07:07:10.000Z</time>
      </trkpt>
      <trkpt lat="17.893406" lon="-76.901029">
        <ele>25.444891</ele>
        <time>2024-03-16T07:07:16.000Z</time>
      </trkpt>
      <trkpt lat="17.893143" lon="-76.900821">
        <ele>26.554781</ele>
        <time>2024-03-16T07:07:20.000Z</time>
      </trkpt>
      <trkpt lat="17.892902" lon="-76.900524">
        <ele>27.068343</ele>
        <time>2024-03-16T07:07:24.000Z</time>
      </trkpt>
      <trkpt lat="17.892354" lon="-76.899583">
        <ele>28.548562</ele>
        <time>2024-03-16T07:07:36.000Z</time>
      </trkpt>
      <trkpt lat="17.892067" lon="-76.899317">
        <ele>28.658792</ele>
        <time>2024-03-16T07:07:40.000Z</time>
      </trkpt>
      <trkpt lat="17.891859" lon="-76.899196">
        <ele>28.102049</ele>
        <time>2024-03-16T07:07:43.000Z</time>
      </trkpt>
      <trkpt lat="17.891613" lon="-76.899094">
        <ele>27.49959</ele>
        <time>2024-03-16T07:07:46.000Z</time>
      </trkpt>
      <trkpt lat="17.891442" lon="-76.899037">
        <ele>27.085833</ele>
        <time>2024-03-16T07:07:48.000Z</time>
      </trkpt>
      <trkpt lat="17.891131" lon="-76.899039">
        <ele>26.36597</ele>
        <time>2024-03-16T07:07:51.000Z</time>
      </trkpt>
      <trkpt lat="17.890689" lon="-76.899077">
        <ele>25.380123</ele>
        <time>2024-03-16T07:07:56.000Z</time>
      </trkpt>
      <trkpt lat="17.890242" lon="-76.899315">
        <ele>23.914961</ele>
        <time>2024-03-16T07:08:02.000Z</time>
      </trkpt>
      <trkpt lat="17.889744" lon="-76.899639">
        <ele>21.867914</ele>
        <time>2024-03-16T07:08:09.000Z</time>
      </trkpt>
      <trkpt lat="17.889489" lon="-76.899804">
        <ele>20.849626</ele>
        <time>2024-03-16T07:08:12.000Z</time>
      </trkpt>
      <trkpt lat="17.888911" lon="-76.900233">
        <ele>18.406386</ele>
        <time>2024-03-16T07:08:20.000Z</time>
      </trkpt>
      <trkpt lat="17.888453" lon="-76.900792">
        <ele>16.794454</ele>
        <time>2024-03-16T07:08:28.000Z</time>
      </trkpt>
      <trkpt lat="17.888013" lon="-76.901361">
        <ele>15.146865</ele>
        <time>2024-03-16T07:08:36.000Z</time>
      </trkpt>
      <trkpt lat="17.88674" lon="-76.902681">
        <ele>15.746576</ele>
        <time>2024-03-16T07:08:56.000Z</time>
      </trkpt>
      <trkpt lat="17.885827" lon="-76.903526">
        <ele>17.988034</ele>
        <time>2024-03-16T07:09:10.000Z</time>
      </trkpt>
      <trkpt lat="17.885469" lon="-76.903709">
        <ele>18.866097</ele>
        <time>2024-03-16T07:09:14.000Z</time>
      </trkpt>
      <trkpt lat="17.885308" lon="-76.903754">
        <ele>19.198758</ele>
        <time>2024-03-16T07:09:16.000Z</time>
      </trkpt>
      <trkpt lat="17.885235" lon="-76.903776">
        <ele>19.390244</ele>
        <time>2024-03-16T07:09:17.000Z</time>
      </trkpt>
      <trkpt lat="17.885089" lon="-76.90378">
        <ele>19.683624</ele>
        <time>2024-03-16T07:09:19.000Z</time>
      </trkpt>
      <trkpt lat="17.884571" lon="-76.903728">
        <ele>19.811675</ele>
        <time>2024-03-16T07:09:25.000Z</time>
      </trkpt>
      <trkpt lat="17.884039" lon="-76.90376">
        <ele>19.463844</ele>
        <time>2024-03-16T07:09:31.000Z</time>
      </trkpt>
      <trkpt lat="17.883622" lon="-76.903833">
        <ele>19.185764</ele>
        <time>2024-03-16T07:09:36.000Z</time>
      </trkpt>
      <trkpt lat="17.883225" lon="-76.903968">
        <ele>18.91108</ele>
        <time>2024-03-16T07:09:41.000Z</time>
      </trkpt>
      <trkpt lat="17.882962" lon="-76.904099">
        <ele>18.464027</ele>
        <time>2024-03-16T07:09:44.000Z</time>
      </trkpt>
      <trkpt lat="17.882462" lon="-76.904449">
        <ele>17.410282</ele>
        <time>2024-03-16T07:09:51.000Z</time>
      </trkpt>
      <trkpt lat="17.881938" lon="-76.905021">
        <ele>16.099065</ele>
        <time>2024-03-16T07:09:59.000Z</time>
      </trkpt>
      <trkpt lat="17.881781" lon="-76.905301">
        <ele>15.67677</ele>
        <time>2024-03-16T07:10:02.000Z</time>
      </trkpt>
      <trkpt lat="17.88164" lon="-76.905569">
        <ele>15.580387</ele>
        <time>2024-03-16T07:10:05.000Z</time>
      </trkpt>
      <trkpt lat="17.881387" lon="-76.906253">
        <ele>15.351046</ele>
        <time>2024-03-16T07:10:13.000Z</time>
      </trkpt>
      <trkpt lat="17.881177" lon="-76.907007">
        <ele>15.206001</ele>
        <time>2024-03-16T07:10:21.000Z</time>
      </trkpt>
      <trkpt lat="17.881181" lon="-76.907504">
        <ele>16.448068</ele>
        <time>2024-03-16T07:10:26.000Z</time>
      </trkpt>
      <trkpt lat="17.881183" lon="-76.907594">
        <ele>16.64841</ele>
        <time>2024-03-16T07:10:27.000Z</time>
      </trkpt>
      <trkpt lat="17.881182" lon="-76.908121">
        <ele>18.000648</ele>
        <time>2024-03-16T07:10:33.000Z</time>
      </trkpt>
      <trkpt lat="17.883838" lon="-76.907958">
        <ele>26.12972</ele>
        <time>2024-03-16T07:11:03.000Z</time>
      </trkpt>
      <trkpt lat="17.887219" lon="-76.90783">
        <ele>29.960436</ele>
        <time>2024-03-16T07:11:41.000Z</time>
      </trkpt>
      <trkpt lat="17.88761" lon="-76.907821">
        <ele>30.576699</ele>
        <time>2024-03-16T07:11:45.000Z</time>
      </trkpt>
      <trkpt lat="17.888372" lon="-76.907588">
        <ele>31.852664</ele>
        <time>2024-03-16T07:11:54.000Z</time>
      </trkpt>
      <trkpt lat="17.888747" lon="-76.907419">
        <ele>32.52412</ele>
        <time>2024-03-16T07:11:59.000Z</time>
      </trkpt>
      <trkpt lat="17.890998" lon="-76.905015">
        <ele>38.603953</ele>
        <time>2024-03-16T07:12:35.000Z</time>
      </trkpt>
      <trkpt lat="17.89136" lon="-76.904607">
        <ele>39.263986</ele>
        <time>2024-03-16T07:12:41.000Z</time>
      </trkpt>
      <trkpt lat="17.892435" lon="-76.90322">
        <ele>36.389682</ele>
        <time>2024-03-16T07:13:00.000Z</time>
      </trkpt>
      <trkpt lat="17.892445" lon="-76.903213">
        <ele>36.361807</ele>
        <time>2024-03-16T07:13:00.000Z</time>
      </trkpt>
      <trkpt lat="17.892686" lon="-76.902726">
        <ele>34.582851</ele>
        <time>2024-03-16T07:13:06.000Z</time>
      </trkpt>
      <trkpt lat="17.893228" lon="-76.901523">
        <ele>29.162144</ele>
        <time>2024-03-16T07:13:20.000Z</time>
      </trkpt>
      <trkpt lat="17.893404" lon="-76.90103">
        <ele>26.711636</ele>
        <time>2024-03-16T07:13:26.000Z</time>
      </trkpt>
      <trkpt lat="17.893714" lon="-76.900519">
        <ele>23.699641</ele>
        <time>2024-03-16T07:13:32.000Z</time>
      </trkpt>
      <trkpt lat="17.89409" lon="-76.900006">
        <ele>20.328731</ele>
        <time>2024-03-16T07:13:39.000Z</time>
      </trkpt>
      <trkpt lat="17.895026" lon="-76.89917">
        <ele>16.066353</ele>
        <time>2024-03-16T07:13:53.000Z</time>
      </trkpt>
      <trkpt lat="17.898789" lon="-76.896296">
        <ele>9.06807</ele>
        <time>2024-03-16T07:14:45.000Z</time>
      </trkpt>
      <trkpt lat="17.898995" lon="-76.89623">
        <ele>8.927717</ele>
        <time>2024-03-16T07:14:47.000Z</time>
      </trkpt>
      <trkpt lat="17.899304" lon="-76.896196">
        <ele>8.721853</ele>
        <time>2024-03-16T07:14:50.000Z</time>
      </trkpt>
      <trkpt lat="17.899379" lon="-76.896233">
        <ele>8.669786</ele>
        <time>2024-03-16T07:14:51.000Z</time>
      </trkpt>
      <trkpt lat="17.899562" lon="-76.89628">
        <ele>8.54822</ele>
        <time>2024-03-16T07:14:53.000Z</time>
      </trkpt>
      <trkpt lat="17.899801" lon="-76.896449">
        <ele>8.366385</ele>
        <time>2024-03-16T07:14:56.000Z</time>
      </trkpt>
      <trkpt lat="17.900217" lon="-76.897004">
        <ele>8.00336</ele>
        <time>2024-03-16T07:15:03.000Z</time>
      </trkpt>
      <trkpt lat="17.900512" lon="-76.897524">
        <ele>7.963567</ele>
        <time>2024-03-16T07:15:09.000Z</time>
      </trkpt>
      <trkpt lat="17.900625" lon="-76.897929">
        <ele>7.934756</ele>
        <time>2024-03-16T07:15:13.000Z</time>
      </trkpt>
      <trkpt lat="17.900728" lon="-76.89868">
        <ele>7.905818</ele>
        <time>2024-03-16T07:15:21.000Z</time>
      </trkpt>
      <trkpt lat="17.90076" lon="-76.899702">
        <ele>8.529577</ele>
        <time>2024-03-16T07:15:32.000Z</time>
      </trkpt>
      <trkpt lat="17.900759" lon="-76.899842">
        <ele>8.610514</ele>
        <time>2024-03-16T07:15:33.000Z</time>
      </trkpt>
      <trkpt lat="17.900777" lon="-76.900365">
        <ele>8.924518</ele>
        <time>2024-03-16T07:15:39.000Z</time>
      </trkpt>
      <trkpt lat="17.900971" lon="-76.90161">
        <ele>10.320725</ele>
        <time>2024-03-16T07:15:52.000Z</time>
      </trkpt>
      <trkpt lat="17.900929" lon="-76.902041">
        <ele>10.840403</ele>
        <time>2024-03-16T07:15:57.000Z</time>
      </trkpt>
      <trkpt lat="17.900798" lon="-76.902447">
        <ele>11.364575</ele>
        <time>2024-03-16T07:16:02.000Z</time>
      </trkpt>
      <trkpt lat="17.900564" lon="-76.902829">
        <ele>11.967327</ele>
        <time>2024-03-16T07:16:07.000Z</time>
      </trkpt>
      <trkpt lat="17.900276" lon="-76.903146">
        <ele>12.523875</ele>
        <time>2024-03-16T07:16:12.000Z</time>
      </trkpt>
      <trkpt lat="17.90004" lon="-76.903548">
        <ele>13.148717</ele>
        <time>2024-03-16T07:16:17.000Z</time>
      </trkpt>
      <trkpt lat="17.900013" lon="-76.903657">
        <ele>13.295863</ele>
        <time>2024-03-16T07:16:18.000Z</time>
      </trkpt>
      <trkpt lat="17.899889" lon="-76.904158">
        <ele>14.390221</ele>
        <time>2024-03-16T07:16:23.000Z</time>
      </trkpt>
      <trkpt lat="17.899892" lon="-76.904327">
        <ele>15.031687</ele>
        <time>2024-03-16T07:16:25.000Z</time>
      </trkpt>
      <trkpt lat="17.899884" lon="-76.905104">
        <ele>18.117773</ele>
        <time>2024-03-16T07:16:33.000Z</time>
      </trkpt>
      <trkpt lat="17.899967" lon="-76.905548">
        <ele>19.829212</ele>
        <time>2024-03-16T07:16:38.000Z</time>
      </trkpt>
      <trkpt lat="17.900307" lon="-76.90667">
        <ele>25.662654</ele>
        <time>2024-03-16T07:16:50.000Z</time>
      </trkpt>
      <trkpt lat="17.900364" lon="-76.907397">
        <ele>29.536939</ele>
        <time>2024-03-16T07:16:58.000Z</time>
      </trkpt>
      <trkpt lat="17.900402" lon="-76.908381">
        <ele>33.616912</ele>
        <time>2024-03-16T07:17:08.000Z</time>
      </trkpt>
      <trkpt lat="17.900604" lon="-76.908893">
        <ele>35.622611</ele>
        <time>2024-03-16T07:17:14.000Z</time>
      </trkpt>
      <trkpt lat="17.900789" lon="-76.909102">
        <ele>36.657056</ele>
        <time>2024-03-16T07:17:17.000Z</time>
      </trkpt>
      <trkpt lat="17.900994" lon="-76.909054">
        <ele>37.467607</ele>
        <time>2024-03-16T07:17:19.000Z</time>
      </trkpt>
      <trkpt lat="17.901713" lon="-76.908719">
        <ele>39.182272</ele>
        <time>2024-03-16T07:17:28.000Z</time>
      </trkpt>
      <trkpt lat="17.902136" lon="-76.90863">
        <ele>39.952327</ele>
        <time>2024-03-16T07:17:33.000Z</time>
      </trkpt>
      <trkpt lat="17.902783" lon="-76.908411">
        <ele>41.16487</ele>
        <time>2024-03-16T07:17:41.000Z</time>
      </trkpt>
      <trkpt lat="17.903475" lon="-76.907925">
        <ele>41.081127</ele>
        <time>2024-03-16T07:17:50.000Z</time>
      </trkpt>
      <trkpt lat="17.903829" lon="-76.907559">
        <ele>40.970221</ele>
        <time>2024-03-16T07:17:56.000Z</time>
      </trkpt>
      <trkpt lat="17.904144" lon="-76.90699">
        <ele>40.772668</ele>
        <time>2024-03-16T07:18:03.000Z</time>
      </trkpt>
      <trkpt lat="17.904286" lon="-76.906655">
        <ele>40.502324</ele>
        <time>2024-03-16T07:18:07.000Z</time>
      </trkpt>
      <trkpt lat="17.904411" lon="-76.906029">
        <ele>40.042346</ele>
        <time>2024-03-16T07:18:14.000Z</time>
      </trkpt>
      <trkpt lat="17.904445" lon="-76.905434">
        <ele>39.614222</ele>
        <time>2024-03-16T07:18:20.000Z</time>
      </trkpt>
      <trkpt lat="17.904431" lon="-76.902969">
        <ele>36.970443</ele>
        <time>2024-03-16T07:18:46.000Z</time>
      </trkpt>
      <trkpt lat="17.904528" lon="-76.901876">
        <ele>36.21615</ele>
        <time>2024-03-16T07:18:58.000Z</time>
      </trkpt>
      <trkpt lat="17.904854" lon="-76.90021">
        <ele>34.702298</ele>
        <time>2024-03-16T07:19:16.000Z</time>
      </trkpt>
      <trkpt lat="17.904887" lon="-76.90008">
        <ele>34.570045</ele>
        <time>2024-03-16T07:19:17.000Z</time>
      </trkpt>
      <trkpt lat="17.904905" lon="-76.899929">
        <ele>34.429899</ele>
        <time>2024-03-16T07:19:19.000Z</time>
      </trkpt>
      <trkpt lat="17.905027" lon="-76.899392">
        <ele>32.978183</ele>
        <time>2024-03-16T07:19:25.000Z</time>
      </trkpt>
      <trkpt lat="17.905063" lon="-76.899152">
        <ele>31.84907</ele>
        <time>2024-03-16T07:19:28.000Z</time>
      </trkpt>
      <trkpt lat="17.905136" lon="-76.897877">
        <ele>26.010432</ele>
        <time>2024-03-16T07:19:42.000Z</time>
      </trkpt>
      <trkpt lat="17.905107" lon="-76.897583">
        <ele>24.582176</ele>
        <time>2024-03-16T07:19:45.000Z</time>
      </trkpt>
      <trkpt lat="17.905038" lon="-76.8967">
        <ele>20.050163</ele>
        <time>2024-03-16T07:19:54.000Z</time>
      </trkpt>
      <trkpt lat="17.905112" lon="-76.896016">
        <ele>16.560158</ele>
        <time>2024-03-16T07:20:01.000Z</time>
      </trkpt>
      <trkpt lat="17.905245" lon="-76.895625">
        <ele>15.401222</ele>
        <time>2024-03-16T07:20:05.000Z</time>
      </trkpt>
      <trkpt lat="17.905489" lon="-76.895203">
        <ele>14.655747</ele>
        <time>2024-03-16T07:20:10.000Z</time>
      </trkpt>
      <trkpt lat="17.905863" lon="-76.894841">
        <ele>13.857594</ele>
        <time>2024-03-16T07:20:16.000Z</time>
      </trkpt>
      <trkpt lat="17.906341" lon="-76.894555">
        <ele>12.981062</ele>
        <time>2024-03-16T07:20:22.000Z</time>
      </trkpt>
      <trkpt lat="17.906817" lon="-76.894454">
        <ele>12.554411</ele>
        <time>2024-03-16T07:20:27.000Z</time>
      </trkpt>
      <trkpt lat="17.907158" lon="-76.894465">
        <ele>12.277015</ele>
        <time>2024-03-16T07:20:31.000Z</time>
      </trkpt>
      <trkpt lat="17.907526" lon="-76.894539">
        <ele>11.959001</ele>
        <time>2024-03-16T07:20:35.000Z</time>
      </trkpt>
      <trkpt lat="17.908098" lon="-76.894866">
        <ele>11.362887</ele>
        <time>2024-03-16T07:20:42.000Z</time>
      </trkpt>
      <trkpt lat="17.908304" lon="-76.894943">
        <ele>11.023668</ele>
        <time>2024-03-16T07:20:44.000Z</time>
      </trkpt>
      <trkpt lat="17.908677" lon="-76.895007">
        <ele>10.409003</ele>
        <time>2024-03-16T07:20:48.000Z</time>
      </trkpt>
      <trkpt lat="17.908817" lon="-76.895047">
        <ele>10.199692</ele>
        <time>2024-03-16T07:20:50.000Z</time>
      </trkpt>
      <trkpt lat="17.908896" lon="-76.895024">
        <ele>10.07159</ele>
        <time>2024-03-16T07:20:51.000Z</time>
      </trkpt>
      <trkpt lat="17.908981" lon="-76.894984">
        <ele>9.929208</ele>
        <time>2024-03-16T07:20:52.000Z</time>
      </trkpt>
      <trkpt lat="17.909058" lon="-76.894854">
        <ele>9.687632</ele>
        <time>2024-03-16T07:20:54.000Z</time>
      </trkpt>
      <trkpt lat="17.909074" lon="-76.894787">
        <ele>9.596246</ele>
        <time>2024-03-16T07:20:55.000Z</time>
      </trkpt>
      <trkpt lat="17.90904" lon="-76.894664">
        <ele>9.414695</ele>
        <time>2024-03-16T07:20:56.000Z</time>
      </trkpt>
      <trkpt lat="17.909212" lon="-76.894203">
        <ele>8.658978</ele>
        <time>2024-03-16T07:21:01.000Z</time>
      </trkpt>
      <trkpt lat="17.909316" lon="-76.893943">
        <ele>8.459171</ele>
        <time>2024-03-16T07:21:04.000Z</time>
      </trkpt>
      <trkpt lat="17.909372" lon="-76.893606">
        <ele>8.25672</ele>
        <time>2024-03-16T07:21:08.000Z</time>
      </trkpt>
      <trkpt lat="17.909391" lon="-76.892891">
        <ele>7.830591</ele>
        <time>2024-03-16T07:21:16.000Z</time>
      </trkpt>
      <trkpt lat="17.9095" lon="-76.889721">
        <ele>6.400524</ele>
        <time>2024-03-16T07:21:50.000Z</time>
      </trkpt>
      <trkpt lat="17.90944" lon="-76.88918">
        <ele>6.340067</ele>
        <time>2024-03-16T07:21:56.000Z</time>
      </trkpt>
      <trkpt lat="17.909202" lon="-76.887959">
        <ele>6.24673670772</ele>
        <time>2024-03-16T07:22:09.000Z</time>
      </trkpt>
      <trkpt lat="17.908881" lon="-76.887933">
        <ele>6.22140042473</ele>
        <time>2024-03-16T07:22:13.000Z</time>
      </trkpt>
      <trkpt lat="17.908656" lon="-76.887949">
        <ele>6.20365337004</ele>
        <time>2024-03-16T07:22:16.000Z</time>
      </trkpt>
      <trkpt lat="17.908508" lon="-76.887934">
        <ele>6.19195234718</ele>
        <time>2024-03-16T07:22:18.000Z</time>
      </trkpt>
      <trkpt lat="17.908489" lon="-76.887947">
        <ele>6.19016815387</ele>
        <time>2024-03-16T07:22:18.000Z</time>
      </trkpt>
    </trkseg>
  </trk>
</gpx>

<!--
Performance optimized by W3 Total Cache. Learn more: https://www.boldgrid.com/w3-total-cache/?utm_source=w3tc&utm_medium=footer_comment&utm_campaign=free_plugin

Page Caching using Disk: Enhanced{w3tc_pagecache_reject_reason} 

Served from: www.aquabike.world @ 2026-05-07 16:25:20 by W3 Total Cache
-->